Skip Navigation Links Skip Navigation Links

Current Weather

Burlington-Alamance Rgnl, Burlington, N.C.

For information only: do not use for flight planning or navigation.
Latest weather
Observation time Thursday, August 16, 2018 1:54 AM EDT
Local time Thursday, August 16, 2018 2:29 AM EDT
Flight conditions Visual Meteorological Conditions
Winds
Wind speed calm
Visibility 10 mi.
Sky condition
Ceiling unlimited
Sky clear
Temperature 70°F
Dewpoint 69°F
Altimeter 30.11 in.Hg
Pressure change last 3 hours-0.01 in.Hg
Pressure rising, then falling
Derived measurements
Relative humidity 97%
Density altitude 1442 ft.
Sea-level pressure 30.09 in.Hg
Climate data
Temperature minimum, last 6 hours 70°F
Temperature maximum, last 6 hours 81°F
Remarks
Fully automated report.
Automated weather observing station with precipitation discriminator.
METAR KBUY 160554Z AUTO 00000KT 10SM CLR 21/21 A3011 RMK AO2 SLP189 T02110206 10272 20211 50004

Settings

Location code

InnerDrive.Weather 4.0.6770.0 Release CLR 4.0.30319.42000
Copyright ©2018 Inner Drive Technology. All rights reserved. Portions Copyright ©1986-2018 David Braverman.

Find weather

Site navigation


Skip Navigation Links

Place info

Page info

PayPal - The safer, easier way to pay online!

Return home.

Copyright ©2018 Inner Drive Technology. Purveyors of fine, hand-crafted computer software. Page printed 2018-08-16T06:29:20 UTC.